sensor_id;sensor_type;location;lat;lon;timestamp;pressure;altitude;pressure_sealevel;temperature;humidity
5053;BME280;2545;50.892;5.740;2023-04-22T00:00:13;56159.16;;;-142.21;100.00
5053;BME280;2545;50.892;5.740;2023-04-22T00:02:38;56159.16;;;-142.21;100.00
5053;BME280;2545;50.892;5.740;2023-04-22T00:05:06;56163.06;;;-142.21;100.00
5053;BME280;2545;50.892;5.740;2023-04-22T00:07:31;56149.34;;;-142.21;100.00
5053;BME280;2545;50.892;5.740;2023-04-22T00:09:57;56153.28;;;-142.21;100.00
5053;BME280;2545;50.892;5.740;2023-04-22T00:12:22;56178.75;;;-142.21;100.00
5053;BME280;2545;50.892;5.740;2023-04-22T00:14:48;56129.75;;;-142.21;100.00
5053;BME280;2545;50.892;5.740;2023-04-22T00:17:13;56168.97;;;-142.21;100.00
5053;BME280;2545;50.892;5.740;2023-04-22T00:19:40;56161.13;;;-142.21;100.00
5053;BME280;2545;50.892;5.740;2023-04-22T00:22:06;56174.84;;;-142.21;100.00
5053;BME280;2545;50.892;5.740;2023-04-22T00:24:31;56147.38;;;-142.21;100.00
5053;BME280;2545;50.892;5.740;2023-04-22T00:26:56;56163.06;;;-142.21;100.00
5053;BME280;2545;50.892;5.740;2023-04-22T00:29:22;56143.47;;;-142.21;100.00
5053;BME280;2545;50.892;5.740;2023-04-22T00:31:47;56155.22;;;-142.21;100.00
5053;BME280;2545;50.892;5.740;2023-04-22T00:34:12;56182.69;;;-142.21;100.00
5053;BME280;2545;50.892;5.740;2023-04-22T00:36:38;56161.13;;;-142.21;100.00
5053;BME280;2545;50.892;5.740;2023-04-22T00:39:03;56133.66;;;-142.21;100.00
5053;BME280;2545;50.892;5.740;2023-04-22T00:41:28;56159.16;;;-142.21;100.00
5053;BME280;2545;50.892;5.740;2023-04-22T00:43:55;56157.19;;;-142.21;100.00
5053;BME280;2545;50.892;5.740;2023-04-22T00:46:21;56123.84;;;-142.21;100.00
5053;BME280;2545;50.892;5.740;2023-04-22T00:48:47;56155.22;;;-142.21;100.00
5053;BME280;2545;50.892;5.740;2023-04-22T00:51:12;56170.91;;;-142.21;100.00
5053;BME280;2545;50.892;5.740;2023-04-22T00:53:38;56190.53;;;-142.21;100.00
5053;BME280;2545;50.892;5.740;2023-04-22T00:56:04;56186.59;;;-142.21;100.00
5053;BME280;2545;50.892;5.740;2023-04-22T00:58:29;56161.13;;;-142.21;100.00
5053;BME280;2545;50.892;5.740;2023-04-22T01:00:56;56135.63;;;-142.21;100.00
5053;BME280;2545;50.892;5.740;2023-04-22T01:03:22;56167.00;;;-142.21;100.00
5053;BME280;2545;50.892;5.740;2023-04-22T01:05:48;56145.44;;;-142.21;100.00
5053;BME280;2545;50.892;5.740;2023-04-22T01:08:13;56184.66;;;-142.21;100.00
5053;BME280;2545;50.892;5.740;2023-04-22T01:10:40;56137.59;;;-142.21;100.00
5053;BME280;2545;50.892;5.740;2023-04-22T01:13:06;56217.97;;;-142.21;100.00
5053;BME280;2545;50.892;5.740;2023-04-22T01:15:32;56155.22;;;-142.21;100.00
5053;BME280;2545;50.892;5.740;2023-04-22T01:17:58;56141.50;;;-142.21;100.00
5053;BME280;2545;50.892;5.740;2023-04-22T01:20:26;56157.19;;;-142.21;100.00
5053;BME280;2545;50.892;5.740;2023-04-22T01:22:54;56198.38;;;-142.21;100.00
5053;BME280;2545;50.892;5.740;2023-04-22T01:25:20;56186.59;;;-142.21;100.00
5053;BME280;2545;50.892;5.740;2023-04-22T01:27:46;56131.69;;;-142.21;100.00
5053;BME280;2545;50.892;5.740;2023-04-22T01:30:11;56125.81;;;-142.21;100.00
5053;BME280;2545;50.892;5.740;2023-04-22T01:32:38;56121.91;;;-142.21;100.00
5053;BME280;2545;50.892;5.740;2023-04-22T01:35:05;56139.53;;;-142.21;100.00
5053;BME280;2545;50.892;5.740;2023-04-22T01:37:30;56131.69;;;-142.21;100.00
5053;BME280;2545;50.892;5.740;2023-04-22T01:39:57;56170.91;;;-142.21;100.00
5053;BME280;2545;50.892;5.740;2023-04-22T01:42:23;56184.66;;;-142.21;100.00
5053;BME280;2545;50.892;5.740;2023-04-22T01:44:48;56172.88;;;-142.21;100.00
5053;BME280;2545;50.892;5.740;2023-04-22T01:47:14;56153.28;;;-142.21;100.00
5053;BME280;2545;50.892;5.740;2023-04-22T01:49:39;56188.56;;;-142.21;100.00
5053;BME280;2545;50.892;5.740;2023-04-22T01:52:04;56178.75;;;-142.21;100.00
5053;BME280;2545;50.892;5.740;2023-04-22T01:54:30;56163.06;;;-142.21;100.00
5053;BME280;2545;50.892;5.740;2023-04-22T01:56:55;56137.59;;;-142.21;100.00
5053;BME280;2545;50.892;5.740;2023-04-22T01:59:22;56192.50;;;-142.21;100.00
5053;BME280;2545;50.892;5.740;2023-04-22T02:01:48;56208.16;;;-142.21;100.00
5053;BME280;2545;50.892;5.740;2023-04-22T02:04:13;56117.97;;;-142.21;100.00
5053;BME280;2545;50.892;5.740;2023-04-22T02:06:38;56176.78;;;-142.21;100.00
5053;BME280;2545;50.892;5.740;2023-04-22T02:09:04;56170.91;;;-142.21;100.00
5053;BME280;2545;50.892;5.740;2023-04-22T02:11:29;56186.59;;;-142.21;100.00
5053;BME280;2545;50.892;5.740;2023-04-22T02:13:55;56167.00;;;-142.21;100.00
5053;BME280;2545;50.892;5.740;2023-04-22T02:16:20;56131.69;;;-142.21;100.00
5053;BME280;2545;50.892;5.740;2023-04-22T02:18:46;56133.66;;;-142.21;100.00
5053;BME280;2545;50.892;5.740;2023-04-22T02:21:11;56116.00;;;-142.21;100.00
5053;BME280;2545;50.892;5.740;2023-04-22T02:23:38;56135.63;;;-142.21;100.00
5053;BME280;2545;50.892;5.740;2023-04-22T02:26:03;56184.66;;;-142.21;100.00
5053;BME280;2545;50.892;5.740;2023-04-22T02:28:29;56135.63;;;-142.21;100.00
5053;BME280;2545;50.892;5.740;2023-04-22T02:30:54;56151.31;;;-142.21;100.00
5053;BME280;2545;50.892;5.740;2023-04-22T02:33:20;56149.34;;;-142.21;100.00
5053;BME280;2545;50.892;5.740;2023-04-22T02:35:45;56186.59;;;-142.21;100.00
5053;BME280;2545;50.892;5.740;2023-04-22T02:38:10;56147.38;;;-142.21;100.00
5053;BME280;2545;50.892;5.740;2023-04-22T02:40:36;56168.97;;;-142.21;100.00
5053;BME280;2545;50.892;5.740;2023-04-22T02:43:01;56163.06;;;-142.21;100.00
5053;BME280;2545;50.892;5.740;2023-04-22T02:45:27;56167.00;;;-142.21;100.00
5053;BME280;2545;50.892;5.740;2023-04-22T02:47:52;56172.88;;;-142.21;100.00
5053;BME280;2545;50.892;5.740;2023-04-22T02:50:17;56165.03;;;-142.21;100.00
5053;BME280;2545;50.892;5.740;2023-04-22T02:52:43;56147.38;;;-142.21;100.00
5053;BME280;2545;50.892;5.740;2023-04-22T02:55:08;56133.66;;;-142.21;100.00
5053;BME280;2545;50.892;5.740;2023-04-22T02:57:34;56135.63;;;-142.21;100.00
5053;BME280;2545;50.892;5.740;2023-04-22T02:59:59;56192.50;;;-142.21;100.00
5053;BME280;2545;50.892;5.740;2023-04-22T03:02:25;56168.97;;;-142.21;100.00
5053;BME280;2545;50.892;5.740;2023-04-22T03:04:50;56184.66;;;-142.21;100.00
5053;BME280;2545;50.892;5.740;2023-04-22T03:07:18;56174.84;;;-142.21;100.00
5053;BME280;2545;50.892;5.740;2023-04-22T03:09:43;56163.06;;;-142.21;100.00
5053;BME280;2545;50.892;5.740;2023-04-22T03:12:09;56174.84;;;-142.21;100.00
5053;BME280;2545;50.892;5.740;2023-04-22T03:14:34;56172.88;;;-142.21;100.00
5053;BME280;2545;50.892;5.740;2023-04-22T03:16:59;56159.16;;;-142.21;100.00
5053;BME280;2545;50.892;5.740;2023-04-22T03:19:25;56163.06;;;-142.21;100.00
5053;BME280;2545;50.892;5.740;2023-04-22T03:21:50;56135.63;;;-142.21;100.00
5053;BME280;2545;50.892;5.740;2023-04-22T03:24:15;56168.97;;;-142.21;100.00
5053;BME280;2545;50.892;5.740;2023-04-22T03:26:41;56184.66;;;-142.21;100.00
5053;BME280;2545;50.892;5.740;2023-04-22T03:29:06;56119.94;;;-142.21;100.00
5053;BME280;2545;50.892;5.740;2023-04-22T03:31:31;56178.75;;;-142.21;100.00
5053;BME280;2545;50.892;5.740;2023-04-22T03:33:57;56119.94;;;-142.21;100.00
5053;BME280;2545;50.892;5.740;2023-04-22T03:36:22;56139.53;;;-142.21;100.00
5053;BME280;2545;50.892;5.740;2023-04-22T03:38:47;56172.88;;;-142.21;100.00
5053;BME280;2545;50.892;5.740;2023-04-22T03:41:14;56155.22;;;-142.21;100.00
5053;BME280;2545;50.892;5.740;2023-04-22T03:43:39;56170.91;;;-142.21;100.00
5053;BME280;2545;50.892;5.740;2023-04-22T03:46:05;56153.28;;;-142.21;100.00
5053;BME280;2545;50.892;5.740;2023-04-22T03:48:31;56172.88;;;-142.21;100.00
5053;BME280;2545;50.892;5.740;2023-04-22T03:51:00;56141.50;;;-142.21;100.00
5053;BME280;2545;50.892;5.740;2023-04-22T03:53:25;56123.84;;;-142.21;100.00
5053;BME280;2545;50.892;5.740;2023-04-22T03:55:50;56167.00;;;-142.21;100.00
5053;BME280;2545;50.892;5.740;2023-04-22T03:58:16;56186.59;;;-142.21;100.00
5053;BME280;2545;50.892;5.740;2023-04-22T04:00:41;56174.84;;;-142.21;100.00
5053;BME280;2545;50.892;5.740;2023-04-22T04:03:07;56157.19;;;-142.21;100.00
5053;BME280;2545;50.892;5.740;2023-04-22T04:05:32;56167.00;;;-142.21;100.00
5053;BME280;2545;50.892;5.740;2023-04-22T04:07:57;56168.97;;;-142.21;100.00
5053;BME280;2545;50.892;5.740;2023-04-22T04:10:22;56182.69;;;-142.21;100.00
5053;BME280;2545;50.892;5.740;2023-04-22T04:12:48;56165.03;;;-142.21;100.00
5053;BME280;2545;50.892;5.740;2023-04-22T04:15:13;56159.16;;;-142.21;100.00
5053;BME280;2545;50.892;5.740;2023-04-22T04:17:38;56135.63;;;-142.21;100.00
5053;BME280;2545;50.892;5.740;2023-04-22T04:20:04;56194.44;;;-142.21;100.00
5053;BME280;2545;50.892;5.740;2023-04-22T04:22:31;56168.97;;;-142.21;100.00
5053;BME280;2545;50.892;5.740;2023-04-22T04:24:57;56151.31;;;-142.21;100.00
5053;BME280;2545;50.892;5.740;2023-04-22T04:27:22;56170.91;;;-142.21;100.00
5053;BME280;2545;50.892;5.740;2023-04-22T04:29:48;56168.97;;;-142.21;100.00
5053;BME280;2545;50.892;5.740;2023-04-22T04:32:14;56204.25;;;-142.21;100.00
5053;BME280;2545;50.892;5.740;2023-04-22T04:34:39;56174.84;;;-142.21;100.00
5053;BME280;2545;50.892;5.740;2023-04-22T04:37:06;56135.63;;;-142.21;100.00
5053;BME280;2545;50.892;5.740;2023-04-22T04:39:32;56151.31;;;-142.21;100.00
5053;BME280;2545;50.892;5.740;2023-04-22T04:41:57;56186.59;;;-142.21;100.00
5053;BME280;2545;50.892;5.740;2023-04-22T04:44:24;56167.00;;;-142.21;100.00
5053;BME280;2545;50.892;5.740;2023-04-22T04:46:56;56180.72;;;-142.21;100.00
5053;BME280;2545;50.892;5.740;2023-04-22T04:49:22;56163.06;;;-142.21;100.00
5053;BME280;2545;50.892;5.740;2023-04-22T04:51:47;56167.00;;;-142.21;100.00
5053;BME280;2545;50.892;5.740;2023-04-22T04:54:13;56153.28;;;-142.21;100.00
5053;BME280;2545;50.892;5.740;2023-04-22T04:56:38;56141.50;;;-142.21;100.00
5053;BME280;2545;50.892;5.740;2023-04-22T04:59:04;56172.88;;;-142.21;100.00
5053;BME280;2545;50.892;5.740;2023-04-22T05:01:29;56172.88;;;-142.21;100.00
5053;BME280;2545;50.892;5.740;2023-04-22T05:03:54;56186.59;;;-142.21;100.00
5053;BME280;2545;50.892;5.740;2023-04-22T05:06:20;56163.06;;;-142.21;100.00
5053;BME280;2545;50.892;5.740;2023-04-22T05:08:46;56163.06;;;-142.21;100.00
5053;BME280;2545;50.892;5.740;2023-04-22T05:11:11;56143.47;;;-142.21;100.00
5053;BME280;2545;50.892;5.740;2023-04-22T05:13:36;56151.31;;;-142.21;100.00
5053;BME280;2545;50.892;5.740;2023-04-22T05:16:02;56131.69;;;-142.21;100.00
5053;BME280;2545;50.892;5.740;2023-04-22T05:18:27;56167.00;;;-142.21;100.00
5053;BME280;2545;50.892;5.740;2023-04-22T05:20:52;56167.00;;;-142.21;100.00
5053;BME280;2545;50.892;5.740;2023-04-22T05:23:18;56180.72;;;-142.21;100.00
5053;BME280;2545;50.892;5.740;2023-04-22T05:25:43;56167.00;;;-142.21;100.00
5053;BME280;2545;50.892;5.740;2023-04-22T05:28:08;56147.38;;;-142.21;100.00
5053;BME280;2545;50.892;5.740;2023-04-22T05:30:34;56167.00;;;-142.21;100.00
5053;BME280;2545;50.892;5.740;2023-04-22T05:32:59;56184.66;;;-142.21;100.00
5053;BME280;2545;50.892;5.740;2023-04-22T05:35:25;56163.06;;;-142.21;100.00
5053;BME280;2545;50.892;5.740;2023-04-22T05:37:50;56127.78;;;-142.21;100.00
5053;BME280;2545;50.892;5.740;2023-04-22T05:40:16;56198.38;;;-142.21;100.00
5053;BME280;2545;50.892;5.740;2023-04-22T05:42:41;56168.97;;;-142.21;100.00
5053;BME280;2545;50.892;5.740;2023-04-22T05:45:07;56182.69;;;-142.21;100.00
5053;BME280;2545;50.892;5.740;2023-04-22T05:47:32;56190.53;;;-142.21;100.00
5053;BME280;2545;50.892;5.740;2023-04-22T05:49:58;56180.72;;;-142.21;100.00
5053;BME280;2545;50.892;5.740;2023-04-22T05:52:23;56167.00;;;-142.21;100.00
5053;BME280;2545;50.892;5.740;2023-04-22T05:54:48;56167.00;;;-142.21;100.00
5053;BME280;2545;50.892;5.740;2023-04-22T05:57:14;56163.06;;;-142.21;100.00
5053;BME280;2545;50.892;5.740;2023-04-22T05:59:39;56135.63;;;-142.21;100.00
5053;BME280;2545;50.892;5.740;2023-04-22T06:02:05;56176.78;;;-142.21;100.00
5053;BME280;2545;50.892;5.740;2023-04-22T06:04:31;56174.84;;;-142.21;100.00
5053;BME280;2545;50.892;5.740;2023-04-22T06:06:56;56153.28;;;-142.21;100.00
5053;BME280;2545;50.892;5.740;2023-04-22T06:09:21;56198.38;;;-142.21;100.00
5053;BME280;2545;50.892;5.740;2023-04-22T06:11:47;56157.19;;;-142.21;100.00
5053;BME280;2545;50.892;5.740;2023-04-22T06:14:12;56192.50;;;-142.21;100.00
5053;BME280;2545;50.892;5.740;2023-04-22T06:16:38;56163.06;;;-142.21;100.00
5053;BME280;2545;50.892;5.740;2023-04-22T06:19:04;56163.06;;;-142.21;100.00
5053;BME280;2545;50.892;5.740;2023-04-22T06:21:30;56172.88;;;-142.21;100.00
5053;BME280;2545;50.892;5.740;2023-04-22T06:23:56;56170.91;;;-142.21;100.00
5053;BME280;2545;50.892;5.740;2023-04-22T06:26:22;56143.47;;;-142.21;100.00
5053;BME280;2545;50.892;5.740;2023-04-22T06:28:47;56153.28;;;-142.21;100.00
5053;BME280;2545;50.892;5.740;2023-04-22T06:31:13;56139.53;;;-142.21;100.00
5053;BME280;2545;50.892;5.740;2023-04-22T06:33:38;56147.38;;;-142.21;100.00
5053;BME280;2545;50.892;5.740;2023-04-22T06:36:04;56155.22;;;-142.21;100.00
5053;BME280;2545;50.892;5.740;2023-04-22T06:38:29;56139.53;;;-142.21;100.00
5053;BME280;2545;50.892;5.740;2023-04-22T06:40:55;56135.63;;;-142.21;100.00
5053;BME280;2545;50.892;5.740;2023-04-22T06:43:20;56182.69;;;-142.21;100.00
5053;BME280;2545;50.892;5.740;2023-04-22T06:45:45;56137.59;;;-142.21;100.00
5053;BME280;2545;50.892;5.740;2023-04-22T06:48:11;56153.28;;;-142.21;100.00
5053;BME280;2545;50.892;5.740;2023-04-22T06:50:36;56135.63;;;-142.21;100.00
5053;BME280;2545;50.892;5.740;2023-04-22T06:53:01;56159.16;;;-142.21;100.00
5053;BME280;2545;50.892;5.740;2023-04-22T06:55:26;56192.50;;;-142.21;100.00
5053;BME280;2545;50.892;5.740;2023-04-22T06:57:52;56192.50;;;-142.21;100.00
5053;BME280;2545;50.892;5.740;2023-04-22T07:00:17;56135.63;;;-142.21;100.00
5053;BME280;2545;50.892;5.740;2023-04-22T07:02:42;56180.72;;;-142.21;100.00
5053;BME280;2545;50.892;5.740;2023-04-22T07:05:08;56080.72;;;-142.21;100.00
5053;BME280;2545;50.892;5.740;2023-04-22T07:07:33;56147.38;;;-142.21;100.00
5053;BME280;2545;50.892;5.740;2023-04-22T07:09:59;56141.50;;;-142.21;100.00
5053;BME280;2545;50.892;5.740;2023-04-22T07:12:24;56163.06;;;-142.21;100.00
5053;BME280;2545;50.892;5.740;2023-04-22T07:14:49;56153.28;;;-142.21;100.00
5053;BME280;2545;50.892;5.740;2023-04-22T07:17:15;56106.22;;;-142.21;100.00
5053;BME280;2545;50.892;5.740;2023-04-22T07:19:43;56127.78;;;-142.21;100.00
5053;BME280;2545;50.892;5.740;2023-04-22T07:22:08;56106.22;;;-142.21;100.00
5053;BME280;2545;50.892;5.740;2023-04-22T07:24:34;56168.97;;;-142.21;99.11
5053;BME280;2545;50.892;5.740;2023-04-22T07:26:59;56153.28;;;-142.21;94.12
5053;BME280;2545;50.892;5.740;2023-04-22T07:29:26;56157.19;;;-142.21;90.72
5053;BME280;2545;50.892;5.740;2023-04-22T07:31:51;56155.22;;;-142.21;89.33
5053;BME280;2545;50.892;5.740;2023-04-22T07:34:17;56147.38;;;-142.21;87.61
5053;BME280;2545;50.892;5.740;2023-04-22T07:36:42;56135.63;;;-142.21;88.80
5053;BME280;2545;50.892;5.740;2023-04-22T07:39:08;56127.78;;;-142.21;86.25
5053;BME280;2545;50.892;5.740;2023-04-22T07:41:33;56133.66;;;-142.21;81.88
5053;BME280;2545;50.892;5.740;2023-04-22T07:43:59;56182.69;;;-142.21;82.00
5053;BME280;2545;50.892;5.740;2023-04-22T07:46:25;56090.53;;;-142.21;79.48
5053;BME280;2545;50.892;5.740;2023-04-22T07:48:50;56145.44;;;-142.21;79.27
5053;BME280;2545;50.892;5.740;2023-04-22T07:51:15;56117.97;;;-142.21;80.00
5053;BME280;2545;50.892;5.740;2023-04-22T07:53:41;56127.78;;;-142.21;79.31
5053;BME280;2545;50.892;5.740;2023-04-22T07:56:06;56127.78;;;-142.21;79.35
5053;BME280;2545;50.892;5.740;2023-04-22T07:58:32;56143.47;;;-142.21;80.05
5053;BME280;2545;50.892;5.740;2023-04-22T08:00:57;56131.69;;;-142.21;79.60
5053;BME280;2545;50.892;5.740;2023-04-22T08:03:22;56100.31;;;-142.21;78.33
5053;BME280;2545;50.892;5.740;2023-04-22T08:05:48;56116.00;;;-142.21;77.42
5053;BME280;2545;50.892;5.740;2023-04-22T08:08:14;56070.91;;;-142.21;76.49
5053;BME280;2545;50.892;5.740;2023-04-22T08:10:39;56100.31;;;-142.21;75.25
5053;BME280;2545;50.892;5.740;2023-04-22T08:13:05;56100.31;;;-142.21;75.42
5053;BME280;2545;50.892;5.740;2023-04-22T08:15:30;56123.84;;;-142.21;74.82
5053;BME280;2545;50.892;5.740;2023-04-22T08:17:55;56129.75;;;-142.21;73.71
5053;BME280;2545;50.892;5.740;2023-04-22T08:20:21;56094.44;;;-142.21;73.91
5053;BME280;2545;50.892;5.740;2023-04-22T08:22:47;56102.28;;;-142.21;73.22
5053;BME280;2545;50.892;5.740;2023-04-22T08:25:14;56096.41;;;-142.21;73.67
5053;BME280;2545;50.892;5.740;2023-04-22T08:27:40;56114.06;;;-142.21;69.82
5053;BME280;2545;50.892;5.740;2023-04-22T08:30:06;56098.38;;;-142.21;66.99
5053;BME280;2545;50.892;5.740;2023-04-22T08:32:31;56121.91;;;-142.21;65.90
5053;BME280;2545;50.892;5.740;2023-04-22T08:34:56;56086.59;;;-142.21;64.13
5053;BME280;2545;50.892;5.740;2023-04-22T08:37:22;56078.75;;;-142.21;63.95
5053;BME280;2545;50.892;5.740;2023-04-22T08:39:47;56082.69;;;-142.21;63.14
5053;BME280;2545;50.892;5.740;2023-04-22T08:42:14;56070.91;;;-142.21;62.41
5053;BME280;2545;50.892;5.740;2023-04-22T08:44:40;56084.63;;;-142.21;62.39
5053;BME280;2545;50.892;5.740;2023-04-22T08:47:07;56098.38;;;-142.21;62.17
5053;BME280;2545;50.892;5.740;2023-04-22T08:49:34;56116.00;;;-142.21;61.11
5053;BME280;2545;50.892;5.740;2023-04-22T08:52:00;56094.44;;;-142.21;61.02
5053;BME280;2545;50.892;5.740;2023-04-22T08:54:25;56051.31;;;-142.21;61.04
5053;BME280;2545;50.892;5.740;2023-04-22T08:56:51;56076.78;;;-142.21;60.68
5053;BME280;2545;50.892;5.740;2023-04-22T08:59:19;56084.63;;;-142.21;60.89
5053;BME280;2545;50.892;5.740;2023-04-22T09:01:48;56049.34;;;-142.21;59.29
5053;BME280;2545;50.892;5.740;2023-04-22T09:04:14;56061.09;;;-142.21;58.55
5053;BME280;2545;50.892;5.740;2023-04-22T09:06:40;56061.09;;;-142.21;59.62
5053;BME280;2545;50.892;5.740;2023-04-22T09:09:05;56092.47;;;-142.21;60.34
5053;BME280;2545;50.892;5.740;2023-04-22T09:11:33;56057.19;;;-142.21;58.78
5053;BME280;2545;50.892;5.740;2023-04-22T09:13:58;56068.94;;;-142.21;57.09
5053;BME280;2545;50.892;5.740;2023-04-22T09:16:24;56047.38;;;-142.21;56.91
5053;BME280;2545;50.892;5.740;2023-04-22T09:18:49;56065.03;;;-142.21;56.36
5053;BME280;2545;50.892;5.740;2023-04-22T09:21:15;56057.19;;;-142.21;55.68
5053;BME280;2545;50.892;5.740;2023-04-22T09:23:48;56037.56;;;-142.21;55.62
5053;BME280;2545;50.892;5.740;2023-04-22T09:26:14;56067.00;;;-142.21;56.11
5053;BME280;2545;50.892;5.740;2023-04-22T09:28:52;56070.91;;;-142.21;54.38
5053;BME280;2545;50.892;5.740;2023-04-22T09:31:19;56072.88;;;-142.21;54.49
5053;BME280;2545;50.892;5.740;2023-04-22T09:33:50;56047.38;;;-142.21;53.71
5053;BME280;2545;50.892;5.740;2023-04-22T09:36:16;56041.50;;;-142.21;53.46
5053;BME280;2545;50.892;5.740;2023-04-22T09:38:53;56033.66;;;-142.21;53.34
5053;BME280;2545;50.892;5.740;2023-04-22T09:41:25;56033.66;;;-142.21;51.69
5053;BME280;2545;50.892;5.740;2023-04-22T09:43:53;56057.19;;;-142.21;52.45
5053;BME280;2545;50.892;5.740;2023-04-22T09:46:21;56043.47;;;-142.21;52.21
5053;BME280;2545;50.892;5.740;2023-04-22T09:48:48;56065.03;;;-142.21;51.51
5053;BME280;2545;50.892;5.740;2023-04-22T09:51:15;56057.19;;;-142.21;50.98
5053;BME280;2545;50.892;5.740;2023-04-22T09:53:43;56037.56;;;-142.21;50.81
5053;BME280;2545;50.892;5.740;2023-04-22T09:56:09;56021.88;;;-142.21;50.04
5053;BME280;2545;50.892;5.740;2023-04-22T09:58:38;56008.16;;;-142.21;48.34
5053;BME280;2545;50.892;5.740;2023-04-22T10:01:04;56021.88;;;-142.21;46.36
5053;BME280;2545;50.892;5.740;2023-04-22T10:03:30;55998.38;;;-142.21;45.90
5053;BME280;2545;50.892;5.740;2023-04-22T10:05:59;56033.66;;;-142.21;46.80
5053;BME280;2545;50.892;5.740;2023-04-22T10:08:24;56033.66;;;-142.21;46.21
5053;BME280;2545;50.892;5.740;2023-04-22T10:10:49;56019.94;;;-142.21;46.23
5053;BME280;2545;50.892;5.740;2023-04-22T10:13:15;55996.41;;;-142.21;46.86
5053;BME280;2545;50.892;5.740;2023-04-22T10:15:49;55996.41;;;-142.21;46.69
5053;BME280;2545;50.892;5.740;2023-04-22T10:18:20;56057.19;;;-142.21;46.15
5053;BME280;2545;50.892;5.740;2023-04-22T10:20:47;56043.47;;;-142.21;46.68
5053;BME280;2545;50.892;5.740;2023-04-22T10:23:20;56061.09;;;-142.21;46.27
5053;BME280;2545;50.892;5.740;2023-04-22T10:25:47;56047.38;;;-142.21;46.94
5053;BME280;2545;50.892;5.740;2023-04-22T10:28:15;56010.13;;;-142.21;48.69
5053;BME280;2545;50.892;5.740;2023-04-22T10:30:41;56084.63;;;-142.21;49.67
5053;BME280;2545;50.892;5.740;2023-04-22T10:36:12;56074.84;;;-142.21;48.06
5053;BME280;2545;50.892;5.740;2023-04-22T10:38:41;56068.94;;;-142.21;47.59
5053;BME280;2545;50.892;5.740;2023-04-22T10:41:32;56039.53;;;-142.21;49.69
5053;BME280;2545;50.892;5.740;2023-04-22T10:44:05;56047.38;;;-142.21;49.83
5053;BME280;2545;50.892;5.740;2023-04-22T10:49:12;56072.88;;;-142.21;47.87
5053;BME280;2545;50.892;5.740;2023-04-22T10:57:14;56078.75;;;-142.21;48.88
5053;BME280;2545;50.892;5.740;2023-04-22T10:59:47;56057.19;;;-142.21;48.92
5053;BME280;2545;50.892;5.740;2023-04-22T11:02:14;56049.34;;;-142.21;48.03
5053;BME280;2545;50.892;5.740;2023-04-22T11:04:41;56016.00;;;-142.21;47.63
5053;BME280;2545;50.892;5.740;2023-04-22T11:09:53;56043.47;;;-142.21;47.57
5053;BME280;2545;50.892;5.740;2023-04-22T11:17:32;56045.41;;;-142.21;49.17
5053;BME280;2545;50.892;5.740;2023-04-22T11:19:58;56072.88;;;-142.21;50.04
5053;BME280;2545;50.892;5.740;2023-04-22T11:22:23;56029.72;;;-142.21;49.47
5053;BME280;2545;50.892;5.740;2023-04-22T11:24:59;56061.09;;;-142.21;50.22
5053;BME280;2545;50.892;5.740;2023-04-22T11:27:25;56100.31;;;-142.21;50.50
5053;BME280;2545;50.892;5.740;2023-04-22T11:32:30;56059.16;;;-142.21;49.17
5053;BME280;2545;50.892;5.740;2023-04-22T11:34:56;56072.88;;;-142.21;48.87
5053;BME280;2545;50.892;5.740;2023-04-22T11:37:22;56061.09;;;-142.21;49.87
5053;BME280;2545;50.892;5.740;2023-04-22T11:39:47;56068.94;;;-142.21;50.72
5053;BME280;2545;50.892;5.740;2023-04-22T11:42:19;56080.72;;;-142.21;49.85
5053;BME280;2545;50.892;5.740;2023-04-22T11:44:44;56035.63;;;-142.21;50.85
5053;BME280;2545;50.892;5.740;2023-04-22T11:47:10;56059.16;;;-142.21;52.68
5053;BME280;2545;50.892;5.740;2023-04-22T11:49:37;56035.63;;;-142.21;53.99
5053;BME280;2545;50.892;5.740;2023-04-22T11:52:02;56068.94;;;-142.21;54.45
5053;BME280;2545;50.892;5.740;2023-04-22T11:54:35;56029.72;;;-142.21;53.93
5053;BME280;2545;50.892;5.740;2023-04-22T11:57:02;56045.41;;;-142.21;54.48
5053;BME280;2545;50.892;5.740;2023-04-22T11:59:27;56047.38;;;-142.21;54.69
5053;BME280;2545;50.892;5.740;2023-04-22T12:01:53;56061.09;;;-142.21;53.03
5053;BME280;2545;50.892;5.740;2023-04-22T12:04:21;56045.41;;;-142.21;52.12
5053;BME280;2545;50.892;5.740;2023-04-22T12:06:47;56065.03;;;-142.21;52.26
5053;BME280;2545;50.892;5.740;2023-04-22T12:09:13;56063.06;;;-142.21;51.99
5053;BME280;2545;50.892;5.740;2023-04-22T12:11:38;56051.31;;;-142.21;51.08
5053;BME280;2545;50.892;5.740;2023-04-22T12:14:07;56057.19;;;-142.21;50.20
5053;BME280;2545;50.892;5.740;2023-04-22T12:16:41;56072.88;;;-142.21;50.86
5053;BME280;2545;50.892;5.740;2023-04-22T12:19:07;56059.16;;;-142.21;50.51
5053;BME280;2545;50.892;5.740;2023-04-22T12:21:33;56070.91;;;-142.21;51.08
5053;BME280;2545;50.892;5.740;2023-04-22T12:24:00;56061.09;;;-142.21;52.32
5053;BME280;2545;50.892;5.740;2023-04-22T12:26:29;56063.06;;;-142.21;52.94
5053;BME280;2545;50.892;5.740;2023-04-22T12:28:56;56061.09;;;-142.21;54.12
5053;BME280;2545;50.892;5.740;2023-04-22T12:31:24;56100.31;;;-142.21;55.09
5053;BME280;2545;50.892;5.740;2023-04-22T12:33:50;56104.25;;;-142.21;58.78
5053;BME280;2545;50.892;5.740;2023-04-22T12:36:17;56086.59;;;-142.21;60.90
5053;BME280;2545;50.892;5.740;2023-04-22T12:38:43;56100.31;;;-142.21;62.43
5053;BME280;2545;50.892;5.740;2023-04-22T12:41:08;56102.28;;;-142.21;62.46
5053;BME280;2545;50.892;5.740;2023-04-22T12:43:34;56100.31;;;-142.21;62.69
5053;BME280;2545;50.892;5.740;2023-04-22T12:46:07;56114.06;;;-142.21;62.96
5053;BME280;2545;50.892;5.740;2023-04-22T12:48:33;56082.69;;;-142.21;62.12
5053;BME280;2545;50.892;5.740;2023-04-22T12:51:01;56088.56;;;-142.21;62.07
5053;BME280;2545;50.892;5.740;2023-04-22T12:53:26;56084.63;;;-142.21;61.93
5053;BME280;2545;50.892;5.740;2023-04-22T12:55:52;56072.88;;;-142.21;62.50
5053;BME280;2545;50.892;5.740;2023-04-22T12:58:17;56043.47;;;-142.21;62.48
5053;BME280;2545;50.892;5.740;2023-04-22T13:00:42;56053.25;;;-142.21;61.91
5053;BME280;2545;50.892;5.740;2023-04-22T13:03:08;56121.91;;;-142.21;61.01
5053;BME280;2545;50.892;5.740;2023-04-22T13:05:33;56129.75;;;-142.21;61.04
5053;BME280;2545;50.892;5.740;2023-04-22T13:07:58;56084.63;;;-142.21;61.27
5053;BME280;2545;50.892;5.740;2023-04-22T13:10:24;56110.13;;;-142.21;61.78